Terminal Aerodrome Forecast
Issued by NWS

Home | Current Version | Previous Version | Graphics & Text | Print | Product List | Glossary On
Versions: 1 2 3 4 5 6 7 8 9 10 11 12 13 14 15 16 17 18 19 20 21 22 23 24 25 26
000
FTUS43 KOAX 271120
TAFCDR
TAF
KCDR 271120Z 2712/2812 31012KT P6SM BKN020 OVC035
     FM271600 34015KT P6SM -SHRA OVC025
     FM271900 35014G23KT 5SM -SHRA BKN010 OVC040
     FM280300 33008KT 2SM -RA BR OVC008=

USA.gov is the U.S. government's official web portal to all federal, state and local government web resources and services.